Time;durP1;ratioP1;P1;durP2;ratioP2;P2;SDS_P1;SDS_P2;PMS_P1;PMS_P2;Temp;Humidity;BMP_temperature;BMP_pressure;BME280_temperature;BME280_humidity;BME280_pressure;Samples;Min_cycle;Max_cycle;Signal;HPM_P1;HPM_P2
2023/05/05 00:02:02;;;;;;;12.30;8.70;;;19.70;99.90;;;;;;5125130;27;20020;-81
2023/05/05 00:04:28;;;;;;;9.95;8.20;;;19.70;99.90;;;;;;5123131;27;20027;-73
2023/05/05 00:06:53;;;;;;;10.60;8.80;;;19.70;99.90;;;;;;5119428;27;20024;-73
2023/05/05 00:09:21;;;;;;;9.80;8.25;;;19.60;99.90;;;;;;5123086;27;20039;-73
2023/05/05 00:11:47;;;;;;;9.32;8.30;;;19.60;99.90;;;;;;5124377;27;20008;-73
2023/05/05 00:14:12;;;;;;;10.38;9.05;;;19.50;99.90;;;;;;5121979;27;20030;-81
2023/05/05 00:16:38;;;;;;;9.48;8.57;;;19.50;99.90;;;;;;5108360;27;20394;-76
2023/05/05 00:19:04;;;;;;;13.35;9.68;;;19.50;99.90;;;;;;5131813;27;20027;-72
2023/05/05 00:21:30;;;;;;;12.82;9.30;;;19.50;99.90;;;;;;5120305;27;20505;-80
2023/05/05 00:23:56;;;;;;;11.93;10.60;;;19.50;99.90;;;;;;5122762;27;20379;-84
2023/05/05 00:26:22;;;;;;;13.45;10.30;;;19.50;99.90;;;;;;5111505;27;20027;-72
2023/05/05 00:28:51;;;;;;;18.33;11.95;;;19.40;99.90;;;;;;5122488;27;20371;-82
2023/05/05 00:31:17;;;;;;;13.95;12.10;;;19.40;99.90;;;;;;5133267;27;20062;-78
2023/05/05 00:33:43;;;;;;;21.10;14.57;;;19.30;99.90;;;;;;5132341;27;20069;-75
2023/05/05 00:36:09;;;;;;;17.52;13.90;;;19.20;99.90;;;;;;5126873;27;20044;-79
2023/05/05 00:38:35;;;;;;;15.77;14.13;;;19.20;99.90;;;;;;5127429;28;20019;-74
2023/05/05 00:41:01;;;;;;;16.58;14.40;;;19.20;99.90;;;;;;5132853;28;20099;-75
2023/05/05 00:43:26;;;;;;;17.13;13.90;;;19.20;99.90;;;;;;5133474;28;20023;-81
2023/05/05 00:46:02;;;;;;;17.60;14.70;;;19.20;99.90;;;;;;5133472;28;20023;-85
2023/05/05 00:48:30;;;;;;;20.30;15.20;;;19.20;99.90;;;;;;5132755;27;20031;-80
2023/05/05 00:50:56;;;;;;;17.27;15.27;;;19.10;99.90;;;;;;5136215;27;20019;-80
2023/05/05 00:53:22;;;;;;;21.77;16.08;;;19.10;99.90;;;;;;5133576;27;20027;-84
2023/05/05 00:55:48;;;;;;;25.52;17.70;;;19.10;99.90;;;;;;5116985;28;20040;-81
2023/05/05 00:58:14;;;;;;;19.80;16.88;;;19.10;99.90;;;;;;5132118;27;20008;-78
2023/05/05 01:00:40;;;;;;;18.33;15.68;;;19.10;99.90;;;;;;5119530;27;20026;-72
2023/05/05 01:03:06;;;;;;;23.02;16.75;;;19.10;99.90;;;;;;5137320;27;20023;-80
2023/05/05 01:05:54;;;;;;;20.67;16.83;;;19.10;99.90;;;;;;5137249;27;20023;-73
2023/05/05 01:08:45;;;;;;;19.83;16.13;;;19.00;99.90;;;;;;5132904;27;20088;-79
2023/05/05 01:11:32;;;;;;;25.13;17.65;;;18.90;99.90;;;;;;5107173;27;20027;-83
2023/05/05 01:14:21;;;;;;;22.33;17.35;;;19.00;99.90;;;;;;5137157;27;20391;-80
2023/05/05 01:16:53;;;;;;;23.42;17.35;;;19.00;99.90;;;;;;5135698;27;20047;-73
2023/05/05 01:19:39;;;;;;;22.42;16.42;;;19.00;99.90;;;;;;5136025;27;20097;-87
2023/05/05 01:22:07;;;;;;;23.05;18.55;;;19.00;99.90;;;;;;5136223;27;20031;-73
2023/05/05 01:24:51;;;;;;;18.33;16.42;;;19.10;99.90;;;;;;5136267;27;20023;-73
2023/05/05 01:27:33;;;;;;;20.15;16.67;;;19.10;99.90;;;;;;5135872;27;20027;-73
2023/05/05 01:30:21;;;;;;;24.25;17.20;;;19.10;99.90;;;;;;5135679;27;20027;-73
2023/05/05 01:32:50;;;;;;;22.95;18.00;;;19.00;99.90;;;;;;5136006;27;20023;-74
2023/05/05 01:35:26;;;;;;;22.70;16.83;;;18.80;99.90;;;;;;5135842;27;20029;-72
2023/05/05 01:38:03;;;;;;;17.98;15.15;;;18.90;99.90;;;;;;5135734;27;20046;-80
2023/05/05 01:40:34;;;;;;;18.70;15.70;;;18.90;99.90;;;;;;5117821;27;20015;-73
2023/05/05 01:43:01;;;;;;;23.50;17.10;;;18.90;99.90;;;;;;5136153;27;20012;-76
2023/05/05 01:45:32;;;;;;;20.10;16.55;;;18.90;99.90;;;;;;5135346;27;20019;-73
2023/05/05 01:47:58;;;;;;;20.40;17.13;;;18.90;99.90;;;;;;5117348;27;20019;-74
2023/05/05 01:50:27;;;;;;;19.70;17.60;;;18.90;99.90;;;;;;5135365;27;20121;-72
2023/05/05 01:52:55;;;;;;;23.02;18.30;;;18.80;99.90;;;;;;5099843;27;20542;-77
2023/05/05 01:55:25;;;;;;;22.40;17.60;;;18.90;99.90;;;;;;5135830;27;20099;-73
2023/05/05 01:57:52;;;;;;;21.17;16.50;;;18.80;99.90;;;;;;5135899;27;20035;-73
2023/05/05 02:00:19;;;;;;;19.77;16.45;;;18.80;99.90;;;;;;5135561;27;20015;-75
2023/05/05 02:02:47;;;;;;;24.58;18.27;;;18.80;99.90;;;;;;5135547;27;20019;-73
2023/05/05 02:05:15;;;;;;;19.55;16.30;;;18.70;99.90;;;;;;5135420;27;20057;-80
2023/05/05 02:07:43;;;;;;;20.73;16.67;;;18.70;99.90;;;;;;5135503;27;20019;-72
2023/05/05 02:10:11;;;;;;;21.52;16.80;;;18.60;99.90;;;;;;5135216;27;20027;-72
2023/05/05 02:12:39;;;;;;;19.45;15.23;;;18.50;99.90;;;;;;5134801;27;20020;-72
2023/05/05 02:15:06;;;;;;;20.35;16.55;;;18.60;99.90;;;;;;5134927;27;20045;-73
2023/05/05 02:17:32;;;;;;;19.20;15.55;;;18.50;99.90;;;;;;5135132;27;20031;-73
2023/05/05 02:20:00;;;;;;;16.80;14.93;;;18.50;99.90;;;;;;5135074;27;20467;-73
2023/05/05 02:22:26;;;;;;;18.38;16.40;;;18.40;99.90;;;;;;5117077;27;20445;-72
2023/05/05 02:24:53;;;;;;;20.58;16.00;;;18.50;99.90;;;;;;5134984;27;20026;-72
2023/05/05 02:27:22;;;;;;;22.27;16.88;;;18.40;99.90;;;;;;5135440;27;20023;-72
2023/05/05 02:29:51;;;;;;;18.60;16.38;;;18.40;99.90;;;;;;5134895;27;20023;-72
2023/05/05 02:32:35;;;;;;;20.77;16.27;;;18.30;99.90;;;;;;5134035;27;20027;-74
2023/05/05 02:35:08;;;;;;;20.60;15.35;;;18.30;99.90;;;;;;5119053;27;20455;-73
2023/05/05 02:37:35;;;;;;;17.85;14.50;;;18.30;99.90;;;;;;5132989;27;20039;-75
2023/05/05 02:40:07;;;;;;;22.10;17.02;;;18.30;99.90;;;;;;5134096;27;20027;-73
2023/05/05 02:42:37;;;;;;;19.58;16.42;;;18.20;99.90;;;;;;5134984;27;20027;-73
2023/05/05 02:45:09;;;;;;;22.92;16.95;;;18.20;99.90;;;;;;5135063;27;20017;-73
2023/05/05 02:47:36;;;;;;;22.30;17.48;;;18.20;99.90;;;;;;5114956;27;20035;-77
2023/05/05 02:50:07;;;;;;;20.67;16.58;;;18.10;99.90;;;;;;5135018;27;20030;-76
2023/05/05 02:52:33;;;;;;;22.30;17.38;;;18.10;99.90;;;;;;5132765;27;20043;-72
2023/05/05 02:55:00;;;;;;;18.42;15.70;;;18.10;99.90;;;;;;5116241;27;20490;-77
2023/05/05 02:57:34;;;;;;;19.70;16.25;;;18.10;99.90;;;;;;5122230;27;20057;-73
2023/05/05 03:00:09;;;;;;;17.20;14.63;;;18.00;99.90;;;;;;5134259;27;20023;-72
2023/05/05 03:03:05;;;;;;;18.52;15.60;;;17.90;99.90;;;;;;5133562;27;20034;-72
2023/05/05 03:06:11;;;;;;;20.75;16.65;;;17.90;99.90;;;;;;5133300;27;20076;-72
2023/05/05 03:09:14;;;;;;;19.17;16.30;;;17.80;99.90;;;;;;5081888;27;20032;-74
2023/05/05 03:11:43;;;;;;;22.60;16.90;;;17.80;99.90;;;;;;5050513;28;20064;-75
2023/05/05 03:14:11;;;;;;;20.80;17.50;;;17.70;99.90;;;;;;5119701;27;20099;-72
2023/05/05 03:16:40;;;;;;;20.70;17.70;;;17.80;99.90;;;;;;5132843;27;20039;-72
2023/05/05 03:19:09;;;;;;;21.13;16.90;;;17.70;99.90;;;;;;5115796;27;20390;-72
2023/05/05 03:21:35;;;;;;;20.77;16.50;;;17.60;99.90;;;;;;5134223;27;20019;-72
2023/05/05 03:24:17;;;;;;;18.63;15.73;;;17.60;99.90;;;;;;5134126;27;20031;-73
2023/05/05 03:26:45;;;;;;;21.55;16.17;;;17.60;99.90;;;;;;5133675;27;20106;-74
2023/05/05 03:29:11;;;;;;;18.73;15.10;;;17.50;99.90;;;;;;5133875;27;20737;-74
2023/05/05 03:31:37;;;;;;;22.33;17.50;;;17.50;99.90;;;;;;5133644;27;20024;-76
2023/05/05 03:34:03;;;;;;;18.95;16.50;;;17.40;99.90;;;;;;5114054;27;20019;-73
2023/05/05 03:36:29;;;;;;;20.50;15.52;;;17.30;99.90;;;;;;5132674;27;20031;-74
2023/05/05 03:38:55;;;;;;;21.45;15.85;;;17.30;99.90;;;;;;5115079;27;20015;-75
2023/05/05 03:41:22;;;;;;;23.40;18.30;;;17.30;99.90;;;;;;5133955;27;20029;-76
2023/05/05 03:43:48;;;;;;;29.88;18.35;;;17.30;99.90;;;;;;5133249;27;20027;-72
2023/05/05 03:46:14;;;;;;;21.88;16.80;;;17.30;99.90;;;;;;5133214;27;20030;-72
2023/05/05 03:48:41;;;;;;;23.25;17.70;;;17.20;99.90;;;;;;5133255;27;20023;-72
2023/05/05 03:51:06;;;;;;;22.30;17.33;;;17.20;99.90;;;;;;5133896;27;20026;-74
2023/05/05 03:53:32;;;;;;;20.30;16.73;;;17.20;99.90;;;;;;5133497;27;20019;-72
2023/05/05 03:55:58;;;;;;;23.05;17.73;;;17.10;99.90;;;;;;5132868;27;20550;-72
2023/05/05 03:58:24;;;;;;;24.17;18.75;;;17.10;99.90;;;;;;5132772;27;20378;-73
2023/05/05 04:00:49;;;;;;;26.10;18.08;;;17.10;99.90;;;;;;5133587;27;20463;-72
2023/05/05 04:03:15;;;;;;;20.15;16.58;;;17.00;99.90;;;;;;5133205;27;20023;-72
2023/05/05 04:05:41;;;;;;;21.77;16.65;;;17.00;99.90;;;;;;5113479;27;20054;-71
2023/05/05 04:08:07;;;;;;;22.20;16.50;;;16.90;99.90;;;;;;5133098;27;20042;-72
2023/05/05 04:10:33;;;;;;;22.95;18.15;;;16.90;99.90;;;;;;5133470;27;20023;-74
2023/05/05 04:12:58;;;;;;;22.13;17.10;;;16.90;99.90;;;;;;5132716;27;20047;-76
2023/05/05 04:15:24;;;;;;;24.08;17.30;;;16.80;99.90;;;;;;5132753;27;20023;-73
2023/05/05 04:17:50;;;;;;;23.38;18.02;;;16.80;99.90;;;;;;5130957;27;20475;-74
2023/05/05 04:20:15;;;;;;;20.60;17.50;;;16.80;99.90;;;;;;5132097;27;20605;-72
2023/05/05 04:22:41;;;;;;;24.05;17.35;;;16.80;99.90;;;;;;5132486;27;20034;-72
2023/05/05 04:25:07;;;;;;;22.33;17.42;;;16.80;99.90;;;;;;5132222;27;20016;-73
2023/05/05 04:27:33;;;;;;;20.50;17.55;;;16.80;99.90;;;;;;5131995;27;20019;-71
2023/05/05 04:29:59;;;;;;;23.55;17.50;;;16.70;99.90;;;;;;5131699;27;20501;-73
2023/05/05 04:32:25;;;;;;;20.73;17.77;;;16.60;99.90;;;;;;5132585;27;20522;-72
2023/05/05 04:34:52;;;;;;;25.40;19.48;;;16.50;99.90;;;;;;5131256;27;20026;-72
2023/05/05 04:37:17;;;;;;;28.35;21.88;;;16.50;99.90;;;;;;5132258;28;20127;-72
2023/05/05 04:39:43;;;;;;;23.98;20.02;;;16.50;99.90;;;;;;5131902;28;20070;-73
2023/05/05 04:42:09;;;;;;;28.10;21.42;;;16.50;99.90;;;;;;5132589;28;20051;-77
2023/05/05 04:44:35;;;;;;;24.88;19.08;;;16.50;99.90;;;;;;5132469;28;20515;-70
2023/05/05 04:47:00;;;;;;;25.67;20.48;;;16.50;99.90;;;;;;5132135;28;20031;-72
2023/05/05 04:49:30;;;;;;;25.25;20.75;;;16.60;99.90;;;;;;5132411;28;20080;-72
2023/05/05 04:51:56;;;;;;;24.83;20.02;;;16.60;99.90;;;;;;5132117;28;20103;-72
2023/05/05 04:54:22;;;;;;;26.08;19.33;;;16.60;99.90;;;;;;5131563;28;20023;-74
2023/05/05 04:56:47;;;;;;;27.58;19.30;;;16.60;99.90;;;;;;5113852;28;20508;-73
2023/05/05 04:59:14;;;;;;;28.52;20.08;;;16.60;99.90;;;;;;5131391;28;20015;-72
2023/05/05 05:01:41;;;;;;;31.65;21.20;;;16.60;99.90;;;;;;5131419;28;20114;-72
2023/05/05 05:04:07;;;;;;;27.05;20.90;;;16.60;99.90;;;;;;5130844;28;20059;-72
2023/05/05 05:06:33;;;;;;;23.45;19.33;;;16.50;99.90;;;;;;5132229;28;20034;-75
2023/05/05 05:08:59;;;;;;;25.05;19.90;;;16.60;99.90;;;;;;5132156;28;20420;-75
2023/05/05 05:11:26;;;;;;;29.30;21.00;;;16.50;99.90;;;;;;5131488;28;20071;-72
2023/05/05 05:13:51;;;;;;;28.77;21.50;;;16.50;99.90;;;;;;5130911;28;20096;-73
2023/05/05 05:16:17;;;;;;;23.73;19.70;;;16.50;99.90;;;;;;5113710;28;20043;-73
2023/05/05 05:18:43;;;;;;;29.77;22.02;;;16.50;99.90;;;;;;5132675;28;20023;-73
2023/05/05 05:21:09;;;;;;;28.40;21.17;;;16.50;99.90;;;;;;5130601;28;20095;-71
2023/05/05 05:23:35;;;;;;;30.08;22.42;;;16.50;99.90;;;;;;5129944;28;20011;-73
2023/05/05 05:26:01;;;;;;;25.35;20.10;;;16.50;99.90;;;;;;5129922;28;20035;-75
2023/05/05 05:28:27;;;;;;;27.27;20.88;;;16.50;99.90;;;;;;5132232;28;20083;-74
2023/05/05 05:30:52;;;;;;;28.70;20.98;;;16.60;99.90;;;;;;5131936;28;20034;-72
2023/05/05 05:33:18;;;;;;;25.85;21.48;;;16.60;99.90;;;;;;5131814;28;20467;-72
2023/05/05 05:35:44;;;;;;;26.35;20.40;;;16.60;99.90;;;;;;5132901;27;20081;-72
2023/05/05 05:38:10;;;;;;;23.83;19.50;;;16.60;99.90;;;;;;5135063;27;20406;-74
2023/05/05 05:40:36;;;;;;;25.60;19.55;;;16.60;99.90;;;;;;5134209;27;20028;-73
2023/05/05 05:43:02;;;;;;;26.63;18.98;;;16.70;99.90;;;;;;5116382;27;20106;-72
2023/05/05 05:45:28;;;;;;;27.23;19.50;;;16.70;99.90;;;;;;5135720;27;20026;-72
2023/05/05 05:47:54;;;;;;;25.15;20.33;;;16.70;99.90;;;;;;5136073;27;20023;-72
2023/05/05 05:50:20;;;;;;;28.00;21.63;;;16.70;99.90;;;;;;5134575;27;20038;-72
2023/05/05 05:52:46;;;;;;;27.10;20.10;;;16.80;99.90;;;;;;5136013;27;20374;-73
2023/05/05 05:55:11;;;;;;;27.13;20.40;;;16.80;99.90;;;;;;5134273;27;20053;-72
2023/05/05 05:57:37;;;;;;;26.45;18.58;;;16.80;99.90;;;;;;5135701;27;20031;-72
2023/05/05 06:00:03;;;;;;;24.83;19.52;;;16.90;99.90;;;;;;5117170;27;20023;-74
2023/05/05 06:02:29;;;;;;;28.25;19.65;;;16.90;99.90;;;;;;5132652;27;20031;-71
2023/05/05 06:04:55;;;;;;;28.83;22.73;;;16.90;99.90;;;;;;5135130;27;20486;-73
2023/05/05 06:07:21;;;;;;;30.58;21.55;;;16.90;99.90;;;;;;5132629;27;20457;-74
2023/05/05 06:09:46;;;;;;;28.67;19.15;;;17.00;99.90;;;;;;5135582;27;20108;-72
2023/05/05 06:12:12;;;;;;;24.90;19.60;;;17.00;99.90;;;;;;5133816;27;20100;-75
2023/05/05 06:14:38;;;;;;;27.52;20.25;;;17.00;99.90;;;;;;5135695;27;20027;-72
2023/05/05 06:17:03;;;;;;;27.10;20.45;;;17.00;99.90;;;;;;5133932;27;20479;-72
2023/05/05 06:19:29;;;;;;;26.48;18.85;;;17.00;99.90;;;;;;5135136;27;20067;-74
2023/05/05 06:21:55;;;;;;;25.13;18.42;;;17.10;99.90;;;;;;5134984;27;20451;-73
2023/05/05 06:24:20;;;;;;;26.08;19.13;;;17.10;99.90;;;;;;5134211;27;20019;-74
2023/05/05 06:26:46;;;;;;;25.20;18.42;;;17.20;99.90;;;;;;5135384;27;20083;-75
2023/05/05 06:29:12;;;;;;;25.70;17.58;;;17.30;99.90;;;;;;5135274;27;20038;-76
2023/05/05 06:31:38;;;;;;;23.88;16.75;;;17.30;99.90;;;;;;5123958;27;20395;-73
2023/05/05 06:34:03;;;;;;;21.35;16.02;;;17.30;99.90;;;;;;5124841;27;20091;-73
2023/05/05 06:36:30;;;;;;;21.92;15.23;;;17.30;99.90;;;;;;5109444;27;20066;-73
2023/05/05 06:38:56;;;;;;;16.95;13.00;;;17.30;99.90;;;;;;5116800;27;20164;-73
2023/05/05 06:41:22;;;;;;;17.38;12.57;;;17.40;99.90;;;;;;5134959;27;20109;-73
2023/05/05 06:43:47;;;;;;;17.00;11.80;;;17.40;99.90;;;;;;5128697;27;20019;-76
2023/05/05 06:46:13;;;;;;;15.60;11.82;;;17.40;99.90;;;;;;5116832;27;20031;-73
2023/05/05 06:48:39;;;;;;;17.58;10.95;;;17.50;99.90;;;;;;5122579;27;20552;-74
2023/05/05 06:51:04;;;;;;;12.23;10.20;;;17.40;99.90;;;;;;5128940;27;20102;-73
2023/05/05 06:53:30;;;;;;;15.43;10.73;;;17.60;99.90;;;;;;5112212;27;20030;-73
2023/05/05 06:55:56;;;;;;;15.73;11.35;;;17.70;99.90;;;;;;5116763;27;20035;-73
2023/05/05 06:58:22;;;;;;;17.48;10.27;;;17.80;99.90;;;;;;5123893;27;20118;-74
2023/05/05 07:00:47;;;;;;;13.45;9.73;;;17.90;99.90;;;;;;5125929;27;20038;-72
2023/05/05 07:03:13;;;;;;;19.40;10.25;;;18.00;99.90;;;;;;5115004;27;20375;-73
2023/05/05 07:05:39;;;;;;;14.13;10.38;;;18.20;99.90;;;;;;5126909;27;20034;-73
2023/05/05 07:08:05;;;;;;;16.40;9.88;;;18.40;99.90;;;;;;5122479;27;20023;-73
2023/05/05 07:10:32;;;;;;;13.40;9.55;;;18.50;99.90;;;;;;5123381;27;20452;-73
2023/05/05 07:12:57;;;;;;;14.48;9.68;;;18.70;99.90;;;;;;5123296;27;20107;-74
2023/05/05 07:15:23;;;;;;;12.63;9.00;;;18.80;99.90;;;;;;5124627;27;20072;-77
2023/05/05 07:17:49;;;;;;;10.90;8.55;;;18.90;99.90;;;;;;5106470;27;20082;-78
2023/05/05 07:20:15;;;;;;;12.25;8.18;;;18.90;99.90;;;;;;5125596;27;20171;-77
2023/05/05 07:22:41;;;;;;;11.27;7.32;;;18.80;99.90;;;;;;5127924;27;20102;-74
2023/05/05 07:25:07;;;;;;;11.68;7.85;;;18.90;99.90;;;;;;5124606;27;20039;-73
2023/05/05 07:27:33;;;;;;;12.52;8.57;;;18.90;99.90;;;;;;5120400;27;20027;-73
2023/05/05 07:30:00;;;;;;;14.85;8.43;;;18.90;99.90;;;;;;5121409;27;20024;-74
2023/05/05 07:32:25;;;;;;;14.93;8.95;;;18.90;99.90;;;;;;5117713;27;20483;-73
2023/05/05 07:34:51;;;;;;;14.18;8.45;;;18.90;99.90;;;;;;5126819;27;20080;-73
2023/05/05 07:37:17;;;;;;;11.10;8.57;;;19.00;99.90;;;;;;5107430;27;20502;-73
2023/05/05 07:39:43;;;;;;;14.50;10.40;;;19.00;99.90;;;;;;5126146;27;20023;-73
2023/05/05 07:42:09;;;;;;;12.18;9.32;;;19.10;99.90;;;;;;5127394;27;20540;-73
2023/05/05 07:44:35;;;;;;;13.38;8.35;;;19.10;99.90;;;;;;5121336;27;20053;-73
2023/05/05 07:47:01;;;;;;;16.77;8.95;;;19.30;99.90;;;;;;5128114;27;20095;-73
2023/05/05 07:49:26;;;;;;;12.50;8.40;;;19.30;99.90;;;;;;5107899;27;20036;-73
2023/05/05 07:51:53;;;;;;;10.07;8.95;;;19.40;99.90;;;;;;5123592;27;20031;-75
2023/05/05 07:54:19;;;;;;;15.35;9.10;;;19.60;99.90;;;;;;5103894;27;20028;-74
2023/05/05 07:56:45;;;;;;;14.30;9.05;;;19.80;99.90;;;;;;5124884;27;20027;-74
2023/05/05 07:59:11;;;;;;;12.10;7.90;;;20.10;99.90;;;;;;5127529;27;20015;-75
2023/05/05 08:01:37;;;;;;;10.93;8.00;;;20.30;99.90;;;;;;5118688;27;20443;-74
2023/05/05 08:04:04;;;;;;;12.80;8.35;;;20.50;99.90;;;;;;5125682;27;20019;-74
2023/05/05 08:06:30;;;;;;;12.15;7.53;;;20.60;99.90;;;;;;5122690;27;20080;-77
2023/05/05 08:08:58;;;;;;;16.08;7.95;;;20.60;99.90;;;;;;5132548;27;20098;-78
2023/05/05 08:11:24;;;;;;;13.23;7.85;;;20.60;99.90;;;;;;5123958;27;20052;-73
2023/05/05 08:13:50;;;;;;;14.68;7.75;;;20.70;99.90;;;;;;5121594;27;20042;-74
2023/05/05 08:16:16;;;;;;;11.43;6.28;;;20.70;99.90;;;;;;5121060;27;20019;-73
2023/05/05 08:18:42;;;;;;;11.18;5.80;;;20.80;99.90;;;;;;5130479;27;20502;-75
2023/05/05 08:21:08;;;;;;;13.82;5.80;;;20.60;99.90;;;;;;5127868;27;20044;-74
2023/05/05 08:23:35;;;;;;;10.73;6.03;;;20.80;99.90;;;;;;5122211;27;20720;-74
2023/05/05 08:26:03;;;;;;;11.10;5.00;;;20.90;99.90;;;;;;5122678;27;20035;-74
2023/05/05 08:28:29;;;;;;;5.65;3.33;;;21.00;99.90;;;;;;5124768;27;20011;-74
2023/05/05 08:30:55;;;;;;;8.48;4.35;;;21.10;99.90;;;;;;5124691;27;20027;-74
2023/05/05 08:33:20;;;;;;;8.75;4.40;;;21.20;99.90;;;;;;5120859;27;20027;-75
2023/05/05 08:35:48;;;;;;;9.75;4.05;;;21.20;99.90;;;;;;5124082;27;20466;-74
2023/05/05 08:38:14;;;;;;;4.32;3.42;;;21.40;99.90;;;;;;5122263;27;20479;-74
2023/05/05 08:40:40;;;;;;;4.90;3.65;;;21.40;99.90;;;;;;5128227;28;20100;-74
2023/05/05 08:43:06;;;;;;;6.07;3.38;;;21.40;99.90;;;;;;5119778;28;20076;-74
2023/05/05 08:45:32;;;;;;;6.38;3.58;;;21.40;99.90;;;;;;5109820;28;20106;-73
2023/05/05 08:48:03;;;;;;;4.78;3.35;;;21.50;99.90;;;;;;5123928;28;20053;-74
2023/05/05 08:50:29;;;;;;;6.45;3.33;;;21.60;99.90;;;;;;5122116;28;20080;-73
2023/05/05 08:53:07;;;;;;;4.20;3.25;;;21.70;99.90;;;;;;5122236;28;20015;-73
2023/05/05 08:55:35;;;;;;;5.65;3.15;;;21.70;99.90;;;;;;5088254;27;20023;-74
2023/05/05 08:58:04;;;;;;;3.72;3.08;;;21.70;99.90;;;;;;5121924;28;20061;-73
2023/05/05 09:00:31;;;;;;;5.32;3.17;;;21.60;99.90;;;;;;5122565;28;20027;-74
2023/05/05 09:02:58;;;;;;;5.05;3.38;;;21.60;99.90;;;;;;5121724;28;20026;-73
2023/05/05 09:05:24;;;;;;;5.88;3.33;;;21.60;99.90;;;;;;5124712;28;20028;-75
2023/05/05 09:07:50;;;;;;;6.00;3.47;;;21.60;99.90;;;;;;5123341;28;20023;-74
2023/05/05 09:10:16;;;;;;;3.70;3.28;;;21.50;99.90;;;;;;5123886;27;20085;-74
2023/05/05 09:12:42;;;;;;;7.45;3.25;;;21.40;99.90;;;;;;5126209;27;20463;-73
2023/05/05 09:15:13;;;;;;;5.30;3.72;;;21.30;99.90;;;;;;5128060;27;20023;-71
2023/05/05 09:17:40;;;;;;;5.93;3.78;;;21.30;99.90;;;;;;5121568;27;20031;-74
2023/05/05 09:20:12;;;;;;;4.97;3.45;;;21.10;99.90;;;;;;5128271;27;20098;-74
2023/05/05 09:22:43;;;;;;;4.55;2.60;;;21.20;99.90;;;;;;5124120;27;20072;-74
2023/05/05 09:25:14;;;;;;;3.05;1.98;;;21.00;99.90;;;;;;5127170;27;20119;-73
2023/05/05 09:27:45;;;;;;;5.15;2.20;;;20.90;99.90;;;;;;5105845;27;20449;-73
2023/05/05 09:30:21;;;;;;;7.07;2.83;;;20.70;99.90;;;;;;5127313;27;20386;-77
2023/05/05 09:32:49;;;;;;;4.20;3.00;;;20.70;99.90;;;;;;5123859;27;20003;-75
2023/05/05 09:35:16;;;;;;;5.18;2.30;;;20.80;99.90;;;;;;5126906;27;21726;-74
2023/05/05 09:37:42;;;;;;;3.00;2.63;;;20.80;99.90;;;;;;5126215;27;20038;-74
2023/05/05 09:40:09;;;;;;;4.03;2.30;;;20.50;99.90;;;;;;5128631;27;20019;-77
2023/05/05 09:42:39;;;;;;;2.78;2.08;;;20.50;99.90;;;;;;5127583;27;20130;-73
2023/05/05 09:45:16;;;;;;;5.03;2.75;;;20.50;99.90;;;;;;5127253;27;20054;-73
2023/05/05 09:47:44;;;;;;;4.32;2.88;;;20.40;99.90;;;;;;5128205;27;20792;-73
2023/05/05 09:50:14;;;;;;;6.93;2.47;;;20.30;99.90;;;;;;5129418;27;20023;-73
2023/05/05 09:52:41;;;;;;;5.50;2.45;;;20.40;99.90;;;;;;5129892;27;20011;-74
2023/05/05 09:55:17;;;;;;;5.90;2.25;;;20.50;99.90;;;;;;5129078;27;20031;-77
2023/05/05 09:57:42;;;;;;;6.53;2.28;;;20.50;99.90;;;;;;5129160;27;20067;-75
2023/05/05 10:00:10;;;;;;;2.83;1.95;;;20.50;99.90;;;;;;5129201;27;20123;-74
2023/05/05 10:02:38;;;;;;;7.55;2.38;;;20.40;99.90;;;;;;5124383;27;20027;-77
2023/05/05 10:05:16;;;;;;;4.13;2.72;;;20.40;99.90;;;;;;5109062;27;20023;-73
2023/05/05 10:07:44;;;;;;;5.55;2.25;;;20.50;99.90;;;;;;5123684;27;21391;-73
2023/05/05 10:10:15;;;;;;;4.45;2.42;;;20.50;99.90;;;;;;5126363;27;20608;-74
2023/05/05 10:12:41;;;;;;;5.13;2.88;;;20.40;99.90;;;;;;5123804;27;20061;-73
2023/05/05 10:15:09;;;;;;;5.20;3.40;;;20.40;99.90;;;;;;5124484;27;20030;-74
2023/05/05 10:17:51;;;;;;;8.57;3.53;;;20.50;99.90;;;;;;5124403;27;20099;-74
2023/05/05 10:20:17;;;;;;;;;;;20.40;99.90;;;;;;5107234;27;20019;-73
2023/05/05 10:22:51;;;;;;;3.50;3.20;;;20.20;99.90;;;;;;5127385;27;19923;-73
2023/05/05 10:25:25;;;;;;;6.63;3.58;;;20.30;99.90;;;;;;5125884;27;20020;-74
2023/05/05 10:27:54;;;;;;;8.30;4.15;;;20.30;99.90;;;;;;5124469;27;20031;-72
2023/05/05 10:30:31;;;;;;;5.13;3.55;;;20.20;99.90;;;;;;5118670;27;20172;-72
2023/05/05 10:33:03;;;;;;;6.18;3.55;;;20.10;99.90;;;;;;5123889;27;20019;-71
2023/05/05 10:35:31;;;;;;;5.22;3.50;;;20.00;99.90;;;;;;5123293;27;20023;-72
2023/05/05 10:37:57;;;;;;;5.53;3.13;;;19.90;99.90;;;;;;5126563;27;20046;-77
2023/05/05 10:40:23;;;;;;;8.27;3.88;;;19.90;99.90;;;;;;5122254;27;20027;-73
2023/05/05 10:42:50;;;;;;;3.80;2.85;;;19.80;99.90;;;;;;5109120;27;20106;-74
2023/05/05 10:45:16;;;;;;;3.70;2.47;;;19.70;99.90;;;;;;5107258;27;20053;-72
2023/05/05 10:47:43;;;;;;;4.70;2.17;;;19.60;99.90;;;;;;5121184;27;20471;-73
2023/05/05 10:50:46;;;;;;;9.10;2.38;;;19.50;99.90;;;;;;5124997;27;20062;-73
2023/05/05 10:53:22;;;;;;;9.00;3.15;;;19.50;99.90;;;;;;5122636;27;20487;-74
2023/05/05 10:56:09;;;;;;;9.10;3.90;;;19.50;99.90;;;;;;5125350;27;20114;-73
2023/05/05 10:58:40;;;;;;;5.63;4.68;;;19.60;99.90;;;;;;5108710;27;20881;-73
2023/05/05 11:01:06;;;;;;;9.95;5.90;;;19.60;99.90;;;;;;5126777;27;20064;-74
2023/05/05 11:03:32;;;;;;;10.43;6.03;;;19.50;99.90;;;;;;5127398;27;20054;-72
2023/05/05 11:06:04;;;;;;;9.73;5.65;;;19.50;99.90;;;;;;5126655;27;20080;-74
2023/05/05 11:08:31;;;;;;;9.10;5.57;;;19.50;99.90;;;;;;5125872;27;20035;-77
2023/05/05 11:10:57;;;;;;;8.65;6.13;;;19.40;99.90;;;;;;5126372;27;20050;-72
2023/05/05 11:13:23;;;;;;;10.68;7.18;;;19.40;99.90;;;;;;5126783;27;20035;-72
2023/05/05 11:15:51;;;;;;;8.52;6.90;;;19.40;99.90;;;;;;5125677;27;20031;-74
2023/05/05 11:18:36;;;;;;;6.80;5.90;;;19.40;99.90;;;;;;5108113;27;20034;-73
2023/05/05 11:21:14;;;;;;;8.60;6.22;;;19.30;99.90;;;;;;5127308;27;20049;-73
2023/05/05 11:23:52;;;;;;;8.80;6.45;;;19.30;99.90;;;;;;5124966;27;20027;-72
2023/05/05 11:26:49;;;;;;;9.15;5.70;;;19.20;99.90;;;;;;5108299;27;20076;-72
2023/05/05 11:29:14;;;;;;;6.57;4.90;;;19.20;99.90;;;;;;5106943;27;20033;-70
2023/05/05 11:31:40;;;;;;;6.90;5.07;;;19.20;99.90;;;;;;5127606;27;21689;-74
2023/05/05 11:34:26;;;;;;;6.57;4.93;;;19.20;99.90;;;;;;5107358;27;20082;-73
2023/05/05 11:36:56;;;;;;;7.45;4.28;;;19.30;99.90;;;;;;5127199;27;20039;-75
2023/05/05 11:39:45;;;;;;;8.43;4.47;;;19.40;99.90;;;;;;5108579;27;20382;-75
2023/05/05 11:42:20;;;;;;;6.47;4.00;;;19.40;99.90;;;;;;5126679;27;20023;-73
2023/05/05 11:44:45;;;;;;;7.03;4.63;;;19.30;99.90;;;;;;5126823;27;20495;-73
2023/05/05 11:47:11;;;;;;;5.90;4.85;;;19.40;99.90;;;;;;5109234;27;20038;-74
2023/05/05 11:49:38;;;;;;;6.05;4.05;;;19.20;99.90;;;;;;5124268;27;20031;-73
2023/05/05 11:52:09;;;;;;;5.93;4.18;;;19.30;99.90;;;;;;5108392;27;20038;-74
2023/05/05 11:54:39;;;;;;;4.53;3.85;;;19.20;99.90;;;;;;5124913;27;20015;-72
2023/05/05 11:57:06;;;;;;;5.85;4.07;;;19.20;99.90;;;;;;5108335;27;20104;-73
2023/05/05 11:59:47;;;;;;;7.57;3.90;;;19.20;99.90;;;;;;5124993;27;20015;-76
2023/05/05 12:02:16;;;;;;;4.32;3.30;;;19.30;99.90;;;;;;5108731;27;20034;-74
2023/05/05 12:04:42;;;;;;;6.60;3.40;;;19.30;99.90;;;;;;5126421;27;20494;-74
2023/05/05 12:07:33;;;;;;;5.75;3.40;;;19.30;99.90;;;;;;5127346;27;20027;-74
2023/05/05 12:10:00;;;;;;;9.35;3.92;;;19.30;99.90;;;;;;5125714;27;20038;-74
2023/05/05 12:12:39;;;;;;;6.45;3.90;;;19.30;99.90;;;;;;5107734;27;20030;-74
2023/05/05 12:15:06;;;;;;;4.97;3.67;;;19.10;99.90;;;;;;5125021;27;20011;-74
2023/05/05 12:17:44;;;;;;;5.90;3.75;;;18.90;99.90;;;;;;5125959;27;20039;-72
2023/05/05 12:20:11;;;;;;;3.55;2.70;;;19.00;99.90;;;;;;5125201;27;20023;-74
2023/05/05 12:22:37;;;;;;;4.75;3.20;;;19.00;99.90;;;;;;5106253;27;20023;-74
2023/05/05 12:25:05;;;;;;;4.57;2.78;;;18.90;99.90;;;;;;5121452;27;20046;-72
2023/05/05 12:27:31;;;;;;;2.30;2.00;;;19.10;99.90;;;;;;5124935;27;20117;-73
2023/05/05 12:30:10;;;;;;;4.05;1.70;;;19.10;99.90;;;;;;5126793;27;20114;-72
2023/05/05 12:32:36;;;;;;;4.60;1.95;;;19.10;99.90;;;;;;5126188;27;20522;-73
2023/05/05 12:35:02;;;;;;;3.28;2.50;;;19.10;99.90;;;;;;5106924;28;20016;-73
2023/05/05 12:37:28;;;;;;;6.03;2.55;;;19.00;99.90;;;;;;5126576;27;20043;-73
2023/05/05 12:39:54;;;;;;;3.38;2.22;;;19.00;99.90;;;;;;5125932;27;20064;-72
2023/05/05 12:42:21;;;;;;;5.88;2.40;;;18.90;99.90;;;;;;5126865;28;20023;-72
2023/05/05 12:44:47;;;;;;;3.45;2.53;;;18.90;99.90;;;;;;5125007;27;20023;-73